Terminal Aerodrome Forecast
Issued by NWS Billings, MT

Home | Current Version | Previous Version | Graphics & Text | Print | Product List | Glossary On
Versions: 1 2 3 4 5 6 7 8 9 10 11 12 13 14 15 16 17 18 19 20 21 22 23 24 25 26 27 28 29 30 31
000
FTUS45 KBYZ 250007 AAA
TAFMLS
TAF AMD
KMLS 250007Z 2500/2524 28022G30KT P6SM -SHRA SCT018 BKN045 OVC070
     FM250800 27014KT 3SM BR BKN005 OVC012
     FM251400 27011KT 5SM BR SCT012 OVC020
     FM251600 29006KT P6SM VCFG SCT020 BKN040=

USA.gov is the U.S. government's official web portal to all federal, state and local government web resources and services.